PWSweather.com
Personal Weather Stations
Station Observations
REBOX73
Petalia At Mount Pantokrator, CorfuGR 49081

Petalia At Mount PantokratorCorfuGR 49081

Lat: 39.747915, Lon: 19.841466

Elevation: 2132

Station Type: ws1080

http://pantokratoras-kerkyra.meteoclub.gr/

Latest ConditionsUpdated 9:30:01 PM GMT+01:01 Sunday, Jan 21, 2018
Currently Today's Max Today's Min Today's Average
Temperature 44.8°F7.1°C 47.7°F8.7°C 41.0°F5.0°C 45.3°F7.4°C
Dew Point 44.8°F7.1°C 46.0°F7.8°C 39.9°F4.4°C 44.2°F6.8°C
Winds 9.0 mph NE14.5 kmh NE 9.0 mph NE14.5 kmh NE - 1.0 mph 1.6 kmh
Wind Gusts 27.0 mph43.5 kmh 27.0 mph43.5 kmh - -
Humidity 100% 100% 92% 96%
Pressure 29.65 in1004.1 mb 29.98 in1015.2 mb 29.64 in1003.7 mb -
Precipitation - 0.80 in20.3 mm - -
Hour Temp Dew Point Humidity Winds Wind Gusts Pressure Precip Precip Rate Daily Precip Total
09:30 PM 44.8°F7.1°C 44.8°F7.1°C 100% 9.0 mph NE14.5 kmh NE 27.0 mph43.5 kmh 29.65 in1004.1 mb 0.05 in1.3 mm 0.00 in0.0 mm 0.80 in20.3 mm
09:15 PM 45.1°F7.3°C 45.1°F7.3°C 100% 4.0 mph NE6.4 kmh NE 15.0 mph24.1 kmh 29.64 in1003.7 mb 0.05 in1.3 mm 0.12 in3.0 mm 0.80 in20.3 mm
09:00 PM 45.1°F7.3°C 45.1°F7.3°C 100% 5.0 mph WSW8.0 kmh WSW 13.0 mph20.9 kmh 29.64 in1003.7 mb 0.02 in0.5 mm 0.00 in0.0 mm 0.76 in19.3 mm
08:45 PM 44.2°F6.8°C 43.4°F6.3°C 97% 2.0 mph WSW3.2 kmh WSW 10.0 mph16.1 kmh 29.65 in1004.1 mb 0.09 in2.3 mm 0.00 in0.0 mm 0.76 in19.3 mm
08:30 PM 43.7°F6.5°C 42.9°F6.1°C 97% 1.0 mph SSE1.6 kmh SSE 3.0 mph4.8 kmh 29.65 in1004.1 mb 0.20 in5.1 mm 0.00 in0.0 mm 0.75 in19.1 mm
08:15 PM 43.9°F6.6°C 43.1°F6.2°C 97% 2.0 mph NNE3.2 kmh NNE 8.0 mph12.9 kmh 29.66 in1004.4 mb 0.20 in5.1 mm 0.00 in0.0 mm 0.75 in19.1 mm
08:00 PM 44.2°F6.8°C 43.2°F6.2°C 96% 1.0 mph NW1.6 kmh NW 5.0 mph8.0 kmh 29.66 in1004.4 mb 0.20 in5.1 mm 0.09 in2.3 mm 0.74 in18.8 mm
07:45 PM 45.0°F7.2°C 44.2°F6.8°C 97% Calm Calm 1.0 mph1.6 kmh 29.66 in1004.4 mb 0.13 in3.3 mm 0.40 in10.2 mm 0.65 in16.5 mm
07:30 PM 45.3°F7.4°C 44.5°F6.9°C 97% 1.0 mph SSW1.6 kmh SSW 4.0 mph6.4 kmh 29.66 in1004.4 mb 0.03 in0.8 mm 0.00 in0.0 mm 0.54 in13.7 mm
07:00 PM 46.0°F7.8°C 45.2°F7.3°C 97% Calm Calm 2.0 mph3.2 kmh 29.67 in1004.7 mb 0.11 in2.8 mm 0.00 in0.0 mm 0.53 in13.5 mm
06:45 PM 46.0°F7.8°C 45.2°F7.3°C 97% 1.0 mph NW1.6 kmh NW 3.0 mph4.8 kmh 29.67 in1004.7 mb 0.13 in3.3 mm 0.04 in1.0 mm 0.52 in13.2 mm
06:30 PM 45.9°F7.7°C 45.1°F7.3°C 97% Calm Calm 4.0 mph6.4 kmh 29.67 in1004.7 mb 0.12 in3.0 mm 0.00 in0.0 mm 0.49 in12.4 mm
06:15 PM 45.9°F7.7°C 45.1°F7.3°C 97% Calm Calm 2.0 mph3.2 kmh 29.68 in1005.1 mb 0.20 in5.1 mm 0.00 in0.0 mm 0.46 in11.7 mm
06:00 PM 45.9°F7.7°C 45.1°F7.3°C 97% Calm Calm 2.0 mph3.2 kmh 29.68 in1005.1 mb 0.21 in5.3 mm 0.01 in0.3 mm 0.42 in10.7 mm
05:45 PM 45.9°F7.7°C 45.1°F7.3°C 97% 1.0 mph WSW1.6 kmh WSW 4.0 mph6.4 kmh 29.69 in1005.4 mb 0.20 in5.1 mm 0.08 in2.0 mm 0.39 in9.9 mm
05:30 PM 45.7°F7.6°C 44.6°F7.0°C 96% 1.0 mph N1.6 kmh N 6.0 mph9.7 kmh 29.69 in1005.4 mb 0.18 in4.6 mm 0.48 in12.2 mm 0.37 in9.4 mm
05:15 PM 45.9°F7.7°C 44.8°F7.1°C 96% 1.0 mph S1.6 kmh S 4.0 mph6.4 kmh 29.68 in1005.1 mb 0.06 in1.5 mm 0.16 in4.1 mm 0.25 in6.4 mm
05:00 PM 45.9°F7.7°C 44.8°F7.1°C 96% 1.0 mph S1.6 kmh S 5.0 mph8.0 kmh 29.69 in1005.4 mb 0.02 in0.5 mm 0.00 in0.0 mm 0.20 in5.1 mm
04:45 PM 45.9°F7.7°C 44.8°F7.1°C 96% 2.0 mph S3.2 kmh S 6.0 mph9.7 kmh 29.69 in1005.4 mb 0.02 in0.5 mm 0.00 in0.0 mm 0.19 in4.8 mm
04:30 PM 46.0°F7.8°C 45.0°F7.2°C 96% 1.0 mph SE1.6 kmh SE 5.0 mph8.0 kmh 29.70 in1005.8 mb 0.08 in2.0 mm 0.00 in0.0 mm 0.19 in4.8 mm
04:15 PM 46.2°F7.9°C 45.1°F7.3°C 96% 1.0 mph S1.6 kmh S 5.0 mph8.0 kmh 29.70 in1005.8 mb 0.08 in2.0 mm 0.00 in0.0 mm 0.19 in4.8 mm
04:00 PM 46.2°F7.9°C 44.9°F7.2°C 95% 1.0 mph S1.6 kmh S 5.0 mph8.0 kmh 29.70 in1005.8 mb 0.08 in2.0 mm 0.09 in2.3 mm 0.19 in4.8 mm
03:45 PM 46.6°F8.1°C 44.9°F7.2°C 94% 1.0 mph S1.6 kmh S 4.0 mph6.4 kmh 29.71 in1006.1 mb 0.01 in0.3 mm 0.04 in1.0 mm 0.12 in3.0 mm
03:30 PM 46.6°F8.1°C 44.7°F7.1°C 93% 1.0 mph SSW1.6 kmh SSW 5.0 mph8.0 kmh 29.71 in1006.1 mb 0.00 in0.0 mm 0.00 in0.0 mm 0.11 in2.8 mm
03:15 PM 46.8°F8.2°C 44.8°F7.1°C 93% Calm Calm 4.0 mph6.4 kmh 29.71 in1006.1 mb 0.00 in0.0 mm 0.00 in0.0 mm 0.11 in2.8 mm
03:00 PM 46.8°F8.2°C 44.8°F7.1°C 93% 1.0 mph S1.6 kmh S 5.0 mph8.0 kmh 29.72 in1006.4 mb 0.00 in0.0 mm 0.00 in0.0 mm 0.11 in2.8 mm
02:45 PM 46.9°F8.3°C 45.0°F7.2°C 93% 1.0 mph S1.6 kmh S 8.0 mph12.9 kmh 29.72 in1006.4 mb 0.00 in0.0 mm 0.00 in0.0 mm 0.11 in2.8 mm
02:30 PM 47.3°F8.5°C 45.7°F7.6°C 94% 1.0 mph SSW1.6 kmh SSW 5.0 mph8.0 kmh 29.72 in1006.4 mb 0.00 in0.0 mm 0.00 in0.0 mm 0.11 in2.8 mm
02:15 PM 47.1°F8.4°C 45.5°F7.5°C 94% 1.0 mph SW1.6 kmh SW 7.0 mph11.3 kmh 29.73 in1006.8 mb 0.00 in0.0 mm 0.00 in0.0 mm 0.11 in2.8 mm
02:00 PM 47.1°F8.4°C 45.8°F7.7°C 95% 1.0 mph SE1.6 kmh SE 4.0 mph6.4 kmh 29.73 in1006.8 mb 0.00 in0.0 mm 0.00 in0.0 mm 0.11 in2.8 mm
01:45 PM 46.9°F8.3°C 45.3°F7.4°C 94% 1.0 mph S1.6 kmh S 5.0 mph8.0 kmh 29.73 in1006.8 mb 0.00 in0.0 mm 0.00 in0.0 mm 0.11 in2.8 mm
01:30 PM 47.1°F8.4°C 45.5°F7.5°C 94% 1.0 mph S1.6 kmh S 4.0 mph6.4 kmh 29.74 in1007.1 mb 0.00 in0.0 mm 0.00 in0.0 mm 0.11 in2.8 mm
01:15 PM 46.6°F8.1°C 44.7°F7.1°C 93% 1.0 mph SSW1.6 kmh SSW 6.0 mph9.7 kmh 29.75 in1007.5 mb 0.00 in0.0 mm 0.00 in0.0 mm 0.11 in2.8 mm
01:00 PM 46.6°F8.1°C 44.7°F7.1°C 93% 2.0 mph S3.2 kmh S 5.0 mph8.0 kmh 29.76 in1007.8 mb 0.00 in0.0 mm 0.00 in0.0 mm 0.11 in2.8 mm
12:45 PM 47.5°F8.6°C 45.3°F7.4°C 92% 2.0 mph SSE3.2 kmh SSE 7.0 mph11.3 kmh 29.76 in1007.8 mb 0.00 in0.0 mm 0.00 in0.0 mm 0.11 in2.8 mm
12:30 PM 47.7°F8.7°C 45.7°F7.6°C 93% 1.0 mph S1.6 kmh S 7.0 mph11.3 kmh 29.76 in1007.8 mb 0.00 in0.0 mm 0.00 in0.0 mm 0.11 in2.8 mm
12:15 PM 47.7°F8.7°C 45.7°F7.6°C 93% 2.0 mph S3.2 kmh S 7.0 mph11.3 kmh 29.77 in1008.1 mb 0.00 in0.0 mm 0.00 in0.0 mm 0.11 in2.8 mm
12:00 PM 47.7°F8.7°C 46.0°F7.8°C 94% Calm Calm 3.0 mph4.8 kmh 29.78 in1008.5 mb 0.00 in0.0 mm 0.00 in0.0 mm 0.11 in2.8 mm
11:45 AM 47.7°F8.7°C 46.0°F7.8°C 94% 1.0 mph WNW1.6 kmh WNW 3.0 mph4.8 kmh 29.79 in1008.8 mb 0.00 in0.0 mm 0.00 in0.0 mm 0.11 in2.8 mm
10:30 AM 46.2°F7.9°C 44.9°F7.2°C 95% 1.0 mph WNW1.6 kmh WNW 7.0 mph11.3 kmh 29.82 in1009.8 mb 0.10 in2.5 mm 0.00 in0.0 mm 0.11 in2.8 mm
10:15 AM 44.8°F7.1°C 42.9°F6.1°C 93% Calm Calm 2.0 mph3.2 kmh 29.83 in1010.2 mb 0.10 in2.5 mm 0.16 in4.1 mm 0.11 in2.8 mm
10:00 AM 45.1°F7.3°C 43.0°F6.1°C 92% 1.0 mph S1.6 kmh S 3.0 mph4.8 kmh 29.84 in1010.5 mb 0.06 in1.5 mm 0.07 in1.8 mm 0.06 in1.5 mm
09:45 AM 45.9°F7.7°C 44.2°F6.8°C 94% 1.0 mph SW1.6 kmh SW 5.0 mph8.0 kmh 29.84 in1010.5 mb 0.01 in0.3 mm 0.04 in1.0 mm 0.02 in0.5 mm
09:30 AM 45.9°F7.7°C 44.2°F6.8°C 94% 1.0 mph ESE1.6 kmh ESE 3.0 mph4.8 kmh 29.84 in1010.5 mb 0.00 in0.0 mm 0.00 in0.0 mm 0.01 in0.3 mm
09:15 AM 46.2°F7.9°C 45.1°F7.3°C 96% 1.0 mph E1.6 kmh E 4.0 mph6.4 kmh 29.84 in1010.5 mb 0.00 in0.0 mm 0.00 in0.0 mm 0.01 in0.3 mm
09:00 AM 46.2°F7.9°C 45.1°F7.3°C 96% Calm Calm 1.0 mph1.6 kmh 29.85 in1010.8 mb 0.00 in0.0 mm 0.00 in0.0 mm 0.01 in0.3 mm
08:45 AM 46.0°F7.8°C 45.0°F7.2°C 96% 1.0 mph ESE1.6 kmh ESE 4.0 mph6.4 kmh 29.85 in1010.8 mb 0.00 in0.0 mm 0.00 in0.0 mm 0.01 in0.3 mm
08:30 AM 46.0°F7.8°C 45.0°F7.2°C 96% 2.0 mph S3.2 kmh S 4.0 mph6.4 kmh 29.85 in1010.8 mb 0.00 in0.0 mm 0.00 in0.0 mm 0.01 in0.3 mm
08:15 AM 46.0°F7.8°C 45.2°F7.3°C 97% 2.0 mph S3.2 kmh S 6.0 mph9.7 kmh 29.86 in1011.2 mb 0.00 in0.0 mm 0.00 in0.0 mm 0.01 in0.3 mm
08:00 AM 45.9°F7.7°C 45.1°F7.3°C 97% 1.0 mph SE1.6 kmh SE 5.0 mph8.0 kmh 29.86 in1011.2 mb 0.00 in0.0 mm 0.00 in0.0 mm 0.01 in0.3 mm
07:45 AM 45.7°F7.6°C 44.6°F7.0°C 96% 1.0 mph SE1.6 kmh SE 5.0 mph8.0 kmh 29.86 in1011.2 mb 0.00 in0.0 mm 0.00 in0.0 mm 0.01 in0.3 mm
07:30 AM 45.3°F7.4°C 44.2°F6.8°C 96% 1.0 mph S1.6 kmh S 5.0 mph8.0 kmh 29.87 in1011.5 mb 0.00 in0.0 mm 0.00 in0.0 mm 0.01 in0.3 mm
07:15 AM 45.1°F7.3°C 44.3°F6.8°C 97% 1.0 mph N1.6 kmh N 3.0 mph4.8 kmh 29.87 in1011.5 mb 0.00 in0.0 mm 0.00 in0.0 mm 0.01 in0.3 mm
07:00 AM 44.8°F7.1°C 44.0°F6.7°C 97% 1.0 mph NE1.6 kmh NE 3.0 mph4.8 kmh 29.87 in1011.5 mb 0.00 in0.0 mm 0.00 in0.0 mm 0.01 in0.3 mm
06:45 AM 44.4°F6.9°C 43.4°F6.3°C 96% Calm Calm 2.0 mph3.2 kmh 29.87 in1011.5 mb 0.00 in0.0 mm 0.00 in0.0 mm 0.01 in0.3 mm
06:30 AM 44.8°F7.1°C 43.7°F6.5°C 96% Calm Calm 4.0 mph6.4 kmh 29.88 in1011.9 mb 0.00 in0.0 mm 0.00 in0.0 mm 0.01 in0.3 mm
06:15 AM 45.1°F7.3°C 43.8°F6.6°C 95% Calm Calm 3.0 mph4.8 kmh 29.88 in1011.9 mb 0.00 in0.0 mm 0.00 in0.0 mm 0.01 in0.3 mm
06:00 AM 45.3°F7.4°C 44.2°F6.8°C 96% 1.0 mph SE1.6 kmh SE 5.0 mph8.0 kmh 29.89 in1012.2 mb 0.00 in0.0 mm 0.00 in0.0 mm 0.01 in0.3 mm
05:45 AM 45.3°F7.4°C 44.2°F6.8°C 96% 1.0 mph S1.6 kmh S 4.0 mph6.4 kmh 29.89 in1012.2 mb 0.00 in0.0 mm 0.00 in0.0 mm 0.01 in0.3 mm
05:30 AM 45.3°F7.4°C 44.2°F6.8°C 96% 1.0 mph NE1.6 kmh NE 3.0 mph4.8 kmh 29.89 in1012.2 mb 0.00 in0.0 mm 0.00 in0.0 mm 0.01 in0.3 mm
05:15 AM 45.1°F7.3°C 44.1°F6.7°C 96% Calm Calm 2.0 mph3.2 kmh 29.90 in1012.5 mb 0.00 in0.0 mm 0.00 in0.0 mm 0.01 in0.3 mm
05:00 AM 45.0°F7.2°C 43.9°F6.6°C 96% 1.0 mph SE1.6 kmh SE 3.0 mph4.8 kmh 29.90 in1012.5 mb 0.00 in0.0 mm 0.00 in0.0 mm 0.01 in0.3 mm
04:45 AM 44.8°F7.1°C 43.7°F6.5°C 96% 1.0 mph E1.6 kmh E 4.0 mph6.4 kmh 29.91 in1012.9 mb 0.00 in0.0 mm 0.00 in0.0 mm 0.01 in0.3 mm
04:30 AM 44.2°F6.8°C 43.2°F6.2°C 96% 1.0 mph N1.6 kmh N 2.0 mph3.2 kmh 29.91 in1012.9 mb 0.00 in0.0 mm 0.00 in0.0 mm 0.01 in0.3 mm
04:15 AM 44.4°F6.9°C 43.4°F6.3°C 96% 1.0 mph SE1.6 kmh SE 5.0 mph8.0 kmh 29.92 in1013.2 mb 0.00 in0.0 mm 0.00 in0.0 mm 0.01 in0.3 mm
04:00 AM 44.2°F6.8°C 43.2°F6.2°C 96% 1.0 mph NW1.6 kmh NW 4.0 mph6.4 kmh 29.92 in1013.2 mb 0.01 in0.3 mm 0.00 in0.0 mm 0.01 in0.3 mm
03:45 AM 44.4°F6.9°C 43.6°F6.4°C 97% 1.0 mph ENE1.6 kmh ENE 5.0 mph8.0 kmh 29.92 in1013.2 mb 0.01 in0.3 mm 0.00 in0.0 mm 0.01 in0.3 mm
03:30 AM 44.2°F6.8°C 43.4°F6.3°C 97% 2.0 mph E3.2 kmh E 6.0 mph9.7 kmh 29.92 in1013.2 mb 0.01 in0.3 mm 0.00 in0.0 mm 0.01 in0.3 mm
03:15 AM 44.1°F6.7°C 44.1°F6.7°C 100% 1.0 mph NE1.6 kmh NE 5.0 mph8.0 kmh 29.93 in1013.5 mb 0.01 in0.3 mm 0.04 in1.0 mm 0.01 in0.3 mm
03:00 AM 43.5°F6.4°C 43.5°F6.4°C 100% Calm Calm 2.0 mph3.2 kmh 29.94 in1013.9 mb 0.00 in0.0 mm 0.00 in0.0 mm 0.00 in0.0 mm
02:45 AM 43.2°F6.2°C 43.2°F6.2°C 100% Calm Calm 2.0 mph3.2 kmh 29.94 in1013.9 mb 0.00 in0.0 mm 0.00 in0.0 mm 0.00 in0.0 mm
02:30 AM 42.6°F5.9°C 42.6°F5.9°C 100% 1.0 mph NW1.6 kmh NW 3.0 mph4.8 kmh 29.94 in1013.9 mb 0.00 in0.0 mm 0.00 in0.0 mm 0.00 in0.0 mm
02:15 AM 41.0°F5.0°C 39.9°F4.4°C 96% Calm Calm 1.0 mph1.6 kmh 29.94 in1013.9 mb 0.00 in0.0 mm 0.00 in0.0 mm 0.00 in0.0 mm
02:00 AM 41.4°F5.2°C 40.3°F4.6°C 96% Calm Calm -- 29.95 in1014.2 mb 0.00 in0.0 mm 0.00 in0.0 mm 0.00 in0.0 mm
01:45 AM 41.4°F5.2°C 40.3°F4.6°C 96% Calm Calm -- 29.95 in1014.2 mb 0.00 in0.0 mm 0.00 in0.0 mm 0.00 in0.0 mm
01:30 AM 42.3°F5.7°C 40.9°F4.9°C 95% Calm Calm -- 29.95 in1014.2 mb 0.00 in0.0 mm 0.00 in0.0 mm 0.00 in0.0 mm
01:15 AM 43.0°F6.1°C 41.6°F5.3°C 95% Calm Calm 1.0 mph1.6 kmh 29.95 in1014.2 mb 0.00 in0.0 mm 0.00 in0.0 mm 0.00 in0.0 mm
01:00 AM 43.3°F6.3°C 42.3°F5.7°C 96% Calm Calm 1.0 mph1.6 kmh 29.95 in1014.2 mb 0.00 in0.0 mm 0.00 in0.0 mm 0.00 in0.0 mm
12:45 AM 44.1°F6.7°C 43.0°F6.1°C 96% Calm Calm 1.0 mph1.6 kmh 29.96 in1014.6 mb 0.00 in0.0 mm 0.00 in0.0 mm 0.00 in0.0 mm
12:30 AM 44.1°F6.7°C 43.0°F6.1°C 96% 1.0 mph SE1.6 kmh SE 3.0 mph4.8 kmh 29.97 in1014.9 mb 0.00 in0.0 mm 0.00 in0.0 mm 0.00 in0.0 mm
12:15 AM 44.1°F6.7°C 43.3°F6.3°C 97% 1.0 mph SE1.6 kmh SE 2.0 mph3.2 kmh 29.97 in1014.9 mb 0.00 in0.0 mm 0.00 in0.0 mm 0.00 in0.0 mm
12:00 AM 43.5°F6.4°C 42.7°F5.9°C 97% 1.0 mph SE1.6 kmh SE 2.0 mph3.2 kmh 29.98 in1015.2 mb 0.00 in0.0 mm 0.00 in0.0 mm 0.00 in0.0 mm